createdAt,value
2017-10-24T00:01:15.002Z,8.60
2017-10-24T00:03:43.321Z,8.70
2017-10-24T00:06:10.881Z,8.70
2017-10-24T00:08:38.412Z,8.70
2017-10-24T00:11:05.954Z,8.60
2017-10-24T00:13:33.476Z,8.50
2017-10-24T00:16:01.017Z,8.60
2017-10-24T00:18:29.330Z,8.60
2017-10-24T00:20:56.907Z,8.60
2017-10-24T00:23:24.432Z,8.50
2017-10-24T00:25:51.954Z,8.50
2017-10-24T00:28:19.500Z,8.50
2017-10-24T00:30:47.021Z,8.40
2017-10-24T00:33:14.573Z,8.50
2017-10-24T00:35:42.105Z,8.50
2017-10-24T00:38:10.420Z,8.40
2017-10-24T00:40:37.960Z,8.40
2017-10-24T00:43:05.513Z,8.50
2017-10-24T00:45:33.036Z,8.40
2017-10-24T00:48:00.629Z,8.40
2017-10-24T00:50:29.944Z,8.40
2017-10-24T00:52:57.485Z,8.50
2017-10-24T00:55:25.037Z,8.50
2017-10-24T00:57:52.569Z,8.40
2017-10-24T01:00:20.104Z,8.50
2017-10-24T01:02:47.841Z,8.50
2017-10-24T01:05:15.400Z,8.60
2017-10-24T01:07:42.954Z,8.70
2017-10-24T01:10:10.482Z,8.60
2017-10-24T01:12:38.022Z,8.60
2017-10-24T01:15:06.334Z,8.50
2017-10-24T01:17:33.884Z,8.50
2017-10-24T01:20:01.445Z,8.70
2017-10-24T01:22:28.992Z,8.60
2017-10-24T01:24:56.534Z,8.50
2017-10-24T01:27:24.076Z,8.50
2017-10-24T01:29:52.488Z,8.50
2017-10-24T01:32:20.014Z,8.50
2017-10-24T01:34:48.326Z,8.60
2017-10-24T01:37:16.265Z,8.60
2017-10-24T01:39:43.825Z,8.60
2017-10-24T01:42:11.369Z,8.60
2017-10-24T01:44:38.901Z,8.60
2017-10-24T01:47:06.460Z,8.50
2017-10-24T01:49:33.990Z,8.60
2017-10-24T01:52:02.294Z,8.70
2017-10-24T01:54:29.832Z,8.70
2017-10-24T01:56:57.378Z,8.60
2017-10-24T01:59:25.713Z,8.50
2017-10-24T02:01:53.237Z,8.50
2017-10-24T02:04:20.757Z,8.50
2017-10-24T02:06:48.300Z,8.60
2017-10-24T02:09:15.852Z,8.50
2017-10-24T02:11:43.405Z,8.50
2017-10-24T02:14:10.950Z,8.50
2017-10-24T02:16:38.492Z,8.60
2017-10-24T02:19:06.831Z,8.60
2017-10-24T02:21:34.363Z,8.60
2017-10-24T02:24:01.886Z,8.70
2017-10-24T02:26:30.204Z,8.50
2017-10-24T02:28:57.757Z,8.50
2017-10-24T02:31:25.292Z,8.60
2017-10-24T02:33:52.836Z,8.60
2017-10-24T02:36:21.154Z,8.70
2017-10-24T02:38:48.701Z,8.70
2017-10-24T02:41:16.235Z,8.70
2017-10-24T02:43:44.522Z,8.70
2017-10-24T02:46:12.071Z,8.70
2017-10-24T02:48:39.611Z,8.80
2017-10-24T02:51:07.165Z,8.80
2017-10-24T02:53:34.711Z,8.90
2017-10-24T02:56:02.246Z,8.80
2017-10-24T02:58:29.789Z,8.80
2017-10-24T03:00:57.301Z,8.70
2017-10-24T03:03:24.841Z,8.80
2017-10-24T03:05:52.366Z,8.70
2017-10-24T03:08:19.911Z,8.80
2017-10-24T03:10:47.444Z,8.80
2017-10-24T03:13:15.009Z,8.80
2017-10-24T03:15:42.572Z,8.90
2017-10-24T03:18:10.873Z,8.80
2017-10-24T03:20:39.205Z,8.90
2017-10-24T03:23:06.749Z,8.90
2017-10-24T03:25:34.288Z,8.90
2017-10-24T03:28:01.812Z,9.00
2017-10-24T03:30:30.114Z,9.00
2017-10-24T03:32:57.644Z,8.90
2017-10-24T03:35:25.958Z,8.90
2017-10-24T03:37:53.484Z,8.90
2017-10-24T03:40:21.796Z,8.90
2017-10-24T03:42:50.340Z,8.90
2017-10-24T03:45:18.767Z,8.80
2017-10-24T03:47:46.281Z,8.80
2017-10-24T03:50:14.578Z,9.00
2017-10-24T03:52:42.889Z,9.00
2017-10-24T03:55:10.439Z,9.00
2017-10-24T03:57:37.990Z,8.90
2017-10-24T04:00:05.523Z,8.90
2017-10-24T04:02:33.930Z,9.00
2017-10-24T04:05:01.468Z,9.00
2017-10-24T04:07:29.013Z,9.00
2017-10-24T04:09:57.297Z,8.90
2017-10-24T04:12:25.603Z,9.00
2017-10-24T04:14:53.129Z,9.00
2017-10-24T04:17:21.412Z,9.00
2017-10-24T04:19:49.713Z,9.10
2017-10-24T04:22:17.258Z,9.10
2017-10-24T04:24:45.573Z,9.10
2017-10-24T04:27:13.213Z,9.10
2017-10-24T04:29:40.761Z,9.10
2017-10-24T04:32:08.302Z,9.10
2017-10-24T04:34:36.599Z,9.10
2017-10-24T04:37:04.126Z,9.10
2017-10-24T04:39:31.702Z,9.10
2017-10-24T04:41:59.992Z,9.10
2017-10-24T04:44:27.554Z,9.10
2017-10-24T04:46:55.081Z,9.10
2017-10-24T04:49:23.381Z,9.20
2017-10-24T04:51:50.929Z,9.10
2017-10-24T04:54:19.233Z,9.20
2017-10-24T04:56:46.772Z,9.20
2017-10-24T04:59:14.316Z,9.10
2017-10-24T05:01:42.620Z,9.10
2017-10-24T05:04:10.142Z,9.10
2017-10-24T05:06:38.456Z,9.20
2017-10-24T05:09:06.004Z,9.20
2017-10-24T05:11:33.547Z,9.20
2017-10-24T05:14:01.850Z,9.20
2017-10-24T05:16:29.412Z,9.20
2017-10-24T05:18:56.958Z,9.10
2017-10-24T05:21:25.258Z,9.20
2017-10-24T05:23:52.803Z,9.10
2017-10-24T05:26:20.341Z,9.00
2017-10-24T05:28:48.652Z,9.20
2017-10-24T05:31:16.172Z,9.20
2017-10-24T05:33:44.477Z,9.20
2017-10-24T05:36:12.017Z,9.20
2017-10-24T05:38:40.335Z,9.10
2017-10-24T05:41:08.191Z,9.10
2017-10-24T05:43:35.730Z,9.00
2017-10-24T05:46:03.264Z,9.10
2017-10-24T05:48:30.806Z,9.20
2017-10-24T05:50:58.345Z,9.30
2017-10-24T05:53:25.878Z,9.20
2017-10-24T05:55:53.417Z,9.10
2017-10-24T05:58:21.709Z,9.10
2017-10-24T06:00:49.256Z,9.10
2017-10-24T06:03:17.545Z,9.00
2017-10-24T06:05:45.090Z,9.00
2017-10-24T06:08:13.384Z,9.10
2017-10-24T06:10:40.937Z,9.10
2017-10-24T06:13:09.253Z,9.10
2017-10-24T06:15:36.776Z,9.10
2017-10-24T06:18:04.309Z,9.10
2017-10-24T06:20:31.829Z,9.10
2017-10-24T06:22:59.349Z,9.10
2017-10-24T06:25:26.892Z,9.10
2017-10-24T06:27:55.205Z,9.20
2017-10-24T06:30:22.746Z,9.10
2017-10-24T06:32:51.069Z,9.10
2017-10-24T06:35:18.597Z,9.10
2017-10-24T06:37:46.146Z,9.20
2017-10-24T06:40:13.669Z,9.20
2017-10-24T06:42:41.216Z,9.30
2017-10-24T06:45:08.737Z,9.40
2017-10-24T06:47:36.255Z,9.40
2017-10-24T06:50:03.796Z,9.40
2017-10-24T06:52:31.318Z,9.40
2017-10-24T06:54:58.858Z,9.40
2017-10-24T06:57:27.150Z,9.30
2017-10-24T06:59:54.716Z,9.30
2017-10-24T07:02:22.236Z,9.30
2017-10-24T07:04:50.552Z,9.40
2017-10-24T07:07:18.085Z,9.30
2017-10-24T07:09:46.398Z,9.30
2017-10-24T07:12:13.926Z,9.20
2017-10-24T07:14:42.241Z,9.30
2017-10-24T07:17:09.764Z,9.30
2017-10-24T07:19:37.315Z,9.30
2017-10-24T07:22:05.607Z,9.40
2017-10-24T07:24:33.142Z,9.40
2017-10-24T07:27:01.451Z,9.40
2017-10-24T07:29:28.987Z,9.40
2017-10-24T07:31:57.302Z,9.30
2017-10-24T07:34:24.821Z,9.30
2017-10-24T07:36:53.131Z,9.30
2017-10-24T07:39:20.657Z,9.30
2017-10-24T07:41:49.077Z,9.40
2017-10-24T07:44:16.618Z,9.40
2017-10-24T07:46:44.157Z,9.40
2017-10-24T07:49:12.450Z,9.40
2017-10-24T07:51:39.990Z,9.40
2017-10-24T07:54:08.308Z,9.40
2017-10-24T07:56:35.828Z,9.40
2017-10-24T07:59:04.249Z,9.40
2017-10-24T08:01:31.790Z,9.30
2017-10-24T08:03:59.342Z,9.20
2017-10-24T08:06:27.629Z,9.60
2017-10-24T08:08:55.180Z,9.50
2017-10-24T08:11:22.709Z,9.70
2017-10-24T08:13:50.259Z,9.70
2017-10-24T08:16:17.773Z,9.90
2017-10-24T08:18:45.324Z,10.00
2017-10-24T08:21:12.853Z,10.40
2017-10-24T08:23:40.418Z,10.50
2017-10-24T08:26:07.947Z,11.00
2017-10-24T08:28:35.493Z,11.40
2017-10-24T08:31:03.820Z,11.10
2017-10-24T08:33:31.358Z,11.10
2017-10-24T08:35:58.930Z,10.80
2017-10-24T08:38:26.456Z,10.80
2017-10-24T08:40:54.775Z,10.90
2017-10-24T08:43:22.311Z,10.80
2017-10-24T08:45:50.625Z,11.10
2017-10-24T08:48:18.165Z,11.10
2017-10-24T08:50:45.724Z,11.10
2017-10-24T08:53:13.273Z,11.10
2017-10-24T08:55:41.562Z,11.30
2017-10-24T08:58:09.101Z,11.20
2017-10-24T09:00:37.401Z,11.20
2017-10-24T09:03:04.967Z,11.10
2017-10-24T09:05:32.508Z,11.10
2017-10-24T09:08:00.062Z,11.10
2017-10-24T09:23:52.649Z,11.50
2017-10-24T09:39:48.608Z,11.20
2017-10-24T09:42:16.136Z,11.20
2017-10-24T09:44:43.685Z,11.50
2017-10-24T09:47:11.233Z,11.50
2017-10-24T09:49:38.797Z,11.60
2017-10-24T09:52:07.044Z,11.90
2017-10-24T09:54:42.220Z,11.60
2017-10-24T09:57:09.781Z,11.90
2017-10-24T09:59:37.096Z,12.10
2017-10-24T10:02:04.693Z,12.00
2017-10-24T10:04:32.230Z,12.10
2017-10-24T10:07:05.360Z,12.20
2017-10-24T10:09:32.884Z,12.10
2017-10-24T10:12:00.440Z,12.50
2017-10-24T10:14:27.970Z,12.60
2017-10-24T10:16:55.529Z,12.70
2017-10-24T10:19:23.089Z,12.70
2017-10-24T10:21:50.612Z,12.70
2017-10-24T10:24:24.827Z,12.50
2017-10-24T10:26:53.129Z,12.30
2017-10-24T10:29:20.677Z,12.30
2017-10-24T10:31:48.244Z,12.40
2017-10-24T10:34:15.807Z,12.40
2017-10-24T10:36:43.342Z,12.40
2017-10-24T10:39:10.902Z,12.40
2017-10-24T10:41:38.444Z,12.20
2017-10-24T10:44:05.997Z,12.20
2017-10-24T10:46:33.528Z,12.20
2017-10-24T10:49:01.841Z,12.10
2017-10-24T10:51:29.427Z,12.10
2017-10-24T10:53:56.969Z,12.20
2017-10-24T10:56:24.528Z,12.20
2017-10-24T10:58:52.061Z,12.40
2017-10-24T11:01:20.378Z,12.60
2017-10-24T11:03:47.931Z,12.50
2017-10-24T11:06:15.480Z,12.60
2017-10-24T11:08:43.021Z,12.80
2017-10-24T11:11:11.373Z,13.10
2017-10-24T11:13:38.923Z,13.10
2017-10-24T11:16:06.463Z,13.00
2017-10-24T11:18:34.020Z,13.10
2017-10-24T11:21:01.564Z,13.00
2017-10-24T11:23:29.113Z,13.20
2017-10-24T11:25:56.670Z,13.40
2017-10-24T11:28:24.253Z,13.50
2017-10-24T11:30:51.808Z,13.90
2017-10-24T11:33:19.370Z,13.90
2017-10-24T11:35:46.913Z,14.40
2017-10-24T11:38:14.444Z,14.80
2017-10-24T11:40:42.054Z,16.30
2017-10-24T11:43:09.604Z,17.20
2017-10-24T11:45:37.157Z,17.90
2017-10-24T11:48:04.732Z,19.20
2017-10-24T11:50:32.293Z,18.50
2017-10-24T11:52:59.830Z,18.30
2017-10-24T11:55:27.385Z,17.60
2017-10-24T11:57:55.701Z,17.50
2017-10-24T12:00:24.002Z,17.90
2017-10-24T12:02:51.560Z,17.80
2017-10-24T12:05:19.854Z,18.90
2017-10-24T12:07:47.413Z,18.90
2017-10-24T12:10:14.935Z,19.40
2017-10-24T12:12:42.464Z,18.80
2017-10-24T12:15:10.028Z,18.40
2017-10-24T12:17:37.587Z,18.30
2017-10-24T12:20:05.111Z,18.80
2017-10-24T12:22:32.662Z,18.30
2017-10-24T12:25:00.197Z,18.00
2017-10-24T12:27:27.749Z,18.70
2017-10-24T12:29:55.286Z,18.40
2017-10-24T12:32:22.862Z,18.10
2017-10-24T12:34:50.393Z,18.00
2017-10-24T12:37:18.685Z,18.60
2017-10-24T12:39:46.260Z,18.60
2017-10-24T12:42:16.089Z,19.20
2017-10-24T12:44:49.157Z,19.20
2017-10-24T12:47:17.476Z,18.60
2017-10-24T12:49:45.013Z,18.60
2017-10-24T12:52:12.549Z,18.30
2017-10-24T12:54:40.899Z,17.60
2017-10-24T12:57:08.928Z,17.50
2017-10-24T12:59:49.043Z,17.10
2017-10-24T13:02:16.569Z,17.00
2017-10-24T13:04:44.129Z,17.40
2017-10-24T13:07:11.658Z,18.00
2017-10-24T13:09:39.973Z,19.10
2017-10-24T13:12:07.503Z,19.10
2017-10-24T13:14:35.837Z,18.60
2017-10-24T13:17:03.386Z,18.60
2017-10-24T13:19:30.959Z,18.80
2017-10-24T13:21:58.525Z,18.10
2017-10-24T13:24:26.065Z,17.40
2017-10-24T13:26:53.626Z,16.80
2017-10-24T13:29:21.164Z,17.10
2017-10-24T13:31:48.717Z,16.80
2017-10-24T13:34:16.259Z,16.90
2017-10-24T13:36:44.581Z,16.40
2017-10-24T13:39:12.894Z,16.40
2017-10-24T13:41:40.450Z,16.40
2017-10-24T13:44:08.002Z,16.40
2017-10-24T13:46:35.546Z,16.50
2017-10-24T13:49:03.866Z,16.60
2017-10-24T13:51:31.488Z,16.60
2017-10-24T13:53:59.804Z,17.50
2017-10-24T13:56:27.366Z,17.50
2017-10-24T13:58:54.902Z,17.60
2017-10-24T14:01:22.489Z,17.40
2017-10-24T14:03:50.031Z,17.60
2017-10-24T14:06:38.281Z,17.40
2017-10-24T14:09:25.653Z,17.10
2017-10-24T14:11:53.987Z,16.60
2017-10-24T14:14:21.549Z,16.60
2017-10-24T14:16:49.089Z,16.60
2017-10-24T14:19:16.634Z,16.50
2017-10-24T14:21:44.929Z,16.50
2017-10-24T14:24:12.491Z,16.50
2017-10-24T14:26:40.065Z,16.60
2017-10-24T14:29:07.607Z,16.90
2017-10-24T14:31:35.142Z,17.30
2017-10-24T14:34:03.465Z,18.80
2017-10-24T14:36:31.017Z,18.70
2017-10-24T14:38:58.570Z,19.00
2017-10-24T14:41:26.101Z,19.00
2017-10-24T14:43:53.661Z,18.60
2017-10-24T14:46:21.185Z,18.10
2017-10-24T14:48:49.510Z,17.40
2017-10-24T14:51:17.055Z,17.40
2017-10-24T14:53:44.606Z,17.20
2017-10-24T14:56:12.157Z,16.90
2017-10-24T14:58:40.459Z,16.80
2017-10-24T15:01:08.005Z,16.80
2017-10-24T15:03:35.542Z,16.50
2017-10-24T15:06:03.853Z,16.20
2017-10-24T15:08:31.420Z,16.20
2017-10-24T15:10:58.962Z,16.00
2017-10-24T15:13:26.496Z,15.90
2017-10-24T15:15:54.834Z,15.80
2017-10-24T15:18:22.370Z,15.80
2017-10-24T15:20:49.922Z,15.70
2017-10-24T15:23:17.454Z,15.70
2017-10-24T15:25:45.753Z,15.60
2017-10-24T15:28:13.317Z,15.60
2017-10-24T15:30:40.868Z,15.50
2017-10-24T15:33:08.417Z,15.50
2017-10-24T15:35:36.702Z,15.30
2017-10-24T15:38:04.266Z,15.30
2017-10-24T15:40:31.809Z,15.30
2017-10-24T15:43:00.114Z,15.20
2017-10-24T15:45:27.644Z,15.20
2017-10-24T15:47:55.960Z,15.10
2017-10-24T15:50:23.485Z,15.10
2017-10-24T15:52:51.835Z,14.90
2017-10-24T15:55:19.417Z,14.90
2017-10-24T15:57:47.711Z,14.80
2017-10-24T16:00:16.025Z,14.70
2017-10-24T16:02:43.552Z,14.60
2017-10-24T16:05:11.112Z,14.50
2017-10-24T16:07:38.644Z,14.40
2017-10-24T16:10:06.965Z,14.20
2017-10-24T16:12:34.492Z,14.20
2017-10-24T16:15:02.814Z,14.00
2017-10-24T16:17:30.349Z,14.00
2017-10-24T16:19:57.902Z,13.90
2017-10-24T16:22:26.207Z,13.70
2017-10-24T16:24:53.738Z,13.70
2017-10-24T16:27:22.719Z,13.60
2017-10-24T16:29:51.112Z,13.50
2017-10-24T16:32:18.656Z,13.50
2017-10-24T16:34:46.960Z,13.30
2017-10-24T16:37:14.532Z,13.30
2017-10-24T16:39:42.058Z,13.10
2017-10-24T16:42:10.382Z,12.90
2017-10-24T16:44:37.920Z,12.90
2017-10-24T16:47:06.253Z,12.70
2017-10-24T16:49:33.801Z,12.70
2017-10-24T16:52:01.379Z,12.60
2017-10-24T16:54:28.988Z,12.50
2017-10-24T16:56:56.583Z,12.50
2017-10-24T16:59:24.136Z,12.50
2017-10-24T17:01:51.681Z,12.40
2017-10-24T17:04:19.229Z,12.40
2017-10-24T17:06:46.789Z,12.30
2017-10-24T17:09:15.088Z,12.20
2017-10-24T17:11:42.636Z,12.10
2017-10-24T17:14:10.196Z,12.10
2017-10-24T17:16:37.740Z,12.00
2017-10-24T17:19:06.084Z,11.90
2017-10-24T17:21:33.638Z,11.90
2017-10-24T17:24:01.190Z,11.90
2017-10-24T17:26:28.750Z,11.90
2017-10-24T17:28:56.397Z,11.90
2017-10-24T17:31:23.928Z,11.80
2017-10-24T17:33:52.245Z,11.80
2017-10-24T17:36:19.780Z,11.80
2017-10-24T17:38:47.338Z,11.80
2017-10-24T17:41:14.892Z,11.70
2017-10-24T17:43:42.449Z,11.70
2017-10-24T17:46:09.981Z,11.70
2017-10-24T17:48:38.319Z,11.90
2017-10-24T17:51:05.874Z,11.80
2017-10-24T17:53:33.401Z,11.90
2017-10-24T17:56:00.974Z,11.90
2017-10-24T17:58:28.512Z,11.80
2017-10-24T18:00:56.826Z,11.80
2017-10-24T18:03:24.373Z,11.80
2017-10-24T18:05:51.929Z,11.90
2017-10-24T18:08:19.458Z,11.90
2017-10-24T18:10:47.052Z,11.80
2017-10-24T18:13:14.594Z,11.80
2017-10-24T18:15:42.171Z,11.90
2017-10-24T18:18:09.726Z,11.80
2017-10-24T18:20:37.288Z,11.80
2017-10-24T18:23:04.847Z,11.80
2017-10-24T18:25:32.397Z,11.90
2017-10-24T18:27:59.937Z,11.80
2017-10-24T18:30:28.260Z,11.80
2017-10-24T18:32:55.816Z,11.80
2017-10-24T18:35:23.372Z,11.90
2017-10-24T18:37:50.929Z,11.80
2017-10-24T18:40:18.466Z,11.90
2017-10-24T18:42:46.058Z,11.90
2017-10-24T18:45:13.587Z,11.80
2017-10-24T18:47:41.146Z,11.80
2017-10-24T18:50:08.683Z,11.80
2017-10-24T18:52:36.276Z,11.90
2017-10-24T18:55:03.837Z,12.00
2017-10-24T18:57:31.420Z,12.00
2017-10-24T18:59:58.965Z,11.90
2017-10-24T19:02:26.540Z,12.00
2017-10-24T19:04:54.087Z,12.10
2017-10-24T19:07:21.641Z,12.10
2017-10-24T19:09:49.196Z,12.20
2017-10-24T19:12:16.726Z,12.30
2017-10-24T19:14:44.288Z,12.30
2017-10-24T19:17:11.836Z,12.20
2017-10-24T19:19:39.387Z,12.40
2017-10-24T19:22:06.960Z,12.40
2017-10-24T19:24:34.496Z,12.50
2017-10-24T19:27:02.050Z,12.50
2017-10-24T19:29:29.626Z,12.30
2017-10-24T19:31:57.182Z,12.20
2017-10-24T19:34:24.737Z,12.40
2017-10-24T19:36:52.267Z,12.40
2017-10-24T19:39:19.821Z,12.30
2017-10-24T19:41:47.389Z,12.30
2017-10-24T19:44:14.956Z,12.30
2017-10-24T19:46:43.278Z,12.20
2017-10-24T19:49:10.822Z,12.20
2017-10-24T19:51:38.365Z,12.30
2017-10-24T19:54:06.679Z,12.20
2017-10-24T19:56:34.242Z,12.20
2017-10-24T19:59:01.798Z,12.20
2017-10-24T20:01:29.333Z,12.10
2017-10-24T20:03:56.889Z,12.00
2017-10-24T20:06:24.436Z,12.10
2017-10-24T20:08:52.116Z,12.10
2017-10-24T20:11:19.653Z,12.10
2017-10-24T20:13:47.974Z,12.10
2017-10-24T20:16:15.513Z,12.10
2017-10-24T20:18:43.065Z,12.00
2017-10-24T20:21:10.600Z,12.00
2017-10-24T20:23:38.941Z,12.00
2017-10-24T20:26:06.485Z,12.00
2017-10-24T20:28:34.068Z,12.00
2017-10-24T20:31:02.398Z,12.20
2017-10-24T20:33:29.935Z,12.20
2017-10-24T20:35:59.255Z,12.30
2017-10-24T20:38:26.797Z,12.20
2017-10-24T20:40:54.346Z,12.20
2017-10-24T20:43:22.645Z,12.30
2017-10-24T20:45:50.968Z,12.30
2017-10-24T20:48:18.501Z,12.30
2017-10-24T20:50:46.061Z,12.30
2017-10-24T20:53:13.595Z,12.40
2017-10-24T20:55:41.926Z,12.40
2017-10-24T20:58:09.469Z,12.40
2017-10-24T21:00:37.793Z,12.60
2017-10-24T21:03:05.336Z,12.60
2017-10-24T21:05:32.901Z,12.50
2017-10-24T21:08:00.449Z,12.40
2017-10-24T21:10:27.989Z,12.40
2017-10-24T21:12:56.310Z,12.50
2017-10-24T21:15:23.870Z,12.50
2017-10-24T21:17:51.429Z,12.50
2017-10-24T21:20:18.968Z,12.50
2017-10-24T21:22:46.513Z,12.50
2017-10-24T21:25:14.049Z,12.50
2017-10-24T21:27:42.392Z,12.50
2017-10-24T21:30:09.925Z,12.40
2017-10-24T21:32:37.482Z,12.40
2017-10-24T21:35:05.041Z,12.40
2017-10-24T21:37:32.576Z,12.40
2017-10-24T21:40:00.910Z,12.40
2017-10-24T21:42:28.491Z,12.40
2017-10-24T21:44:56.035Z,12.40
2017-10-24T21:47:23.677Z,12.40
2017-10-24T21:49:51.222Z,12.40
2017-10-24T21:52:18.762Z,12.40
2017-10-24T21:54:46.297Z,12.40
2017-10-24T21:57:13.844Z,12.40
2017-10-24T21:59:41.400Z,12.40
2017-10-24T22:02:08.948Z,12.40
2017-10-24T22:04:36.511Z,12.30
2017-10-24T22:07:04.066Z,12.40
2017-10-24T22:09:31.617Z,12.40
2017-10-24T22:11:59.177Z,12.50
2017-10-24T22:14:26.707Z,12.50
2017-10-24T22:16:54.265Z,12.50
2017-10-24T22:19:21.821Z,12.40
2017-10-24T22:21:49.367Z,12.40
2017-10-24T22:24:16.897Z,12.30
2017-10-24T22:26:44.447Z,12.30
2017-10-24T22:29:11.974Z,12.30
2017-10-24T22:31:39.514Z,12.30
2017-10-24T22:34:07.089Z,12.30
2017-10-24T22:36:34.634Z,12.30
2017-10-24T22:39:02.177Z,12.20
2017-10-24T22:41:30.492Z,12.20
2017-10-24T22:43:58.060Z,12.20
2017-10-24T22:46:25.610Z,12.30
2017-10-24T22:48:53.181Z,12.30
2017-10-24T22:51:20.727Z,12.30
2017-10-24T22:53:48.551Z,12.30
2017-10-24T22:56:16.113Z,12.30
2017-10-24T22:58:44.438Z,12.20
2017-10-24T23:01:11.985Z,12.20
2017-10-24T23:03:39.511Z,12.30
2017-10-24T23:06:07.123Z,12.30
2017-10-24T23:08:34.678Z,12.20
2017-10-24T23:11:02.241Z,12.20
2017-10-24T23:13:29.797Z,12.20
2017-10-24T23:15:57.359Z,12.20
2017-10-24T23:18:24.885Z,12.20
2017-10-24T23:20:53.205Z,12.20
2017-10-24T23:23:20.732Z,12.10
2017-10-24T23:25:48.302Z,12.20
2017-10-24T23:28:15.834Z,12.20
2017-10-24T23:30:44.158Z,12.20
2017-10-24T23:33:11.684Z,12.10
2017-10-24T23:35:39.987Z,12.10
2017-10-24T23:38:07.541Z,12.10
2017-10-24T23:40:35.084Z,12.20
2017-10-24T23:43:02.635Z,12.20
2017-10-24T23:45:30.941Z,12.10
2017-10-24T23:47:58.497Z,12.10
2017-10-24T23:50:26.043Z,12.10
2017-10-24T23:52:53.602Z,12.10
2017-10-24T23:55:21.162Z,12.20
2017-10-24T23:57:48.755Z,12.10
